RAAF Base Richmond
YSRI : now visible

Airfield :











YOU CAN JOIN US ON...

 
LOGIN :

Register | Disclaimer

   EN    FR    IT 

 









Legend :    VFR   Marginal VFR   IFR   Intensive IFR   Very Intensive IFR
Visi :
Ceiling :
>= 8 km
>= 3000ft
5 to 8 km
1000 to 3000 ft
1500m to 5 km
500 to 1000 ft
800 to 1500m
200 to 500 ft
< 800m
< 200 ft
Symbols :   Thunderstorms  Fog  Heavy snow  Heavy precipitations  Wind > 20 kt






- Airport Elevation : 67 ft


YSRI - RAAF Base Richmond

CURRENT METAR :
  • 280130Z AUTO 08005KT 9999 // NCD 31/22 Q1010 RF00.0/000.0

EXPIRED METARs :
  • 280100Z AUTO 03007KT 350V080 9999 // NCD 31/22 Q1011
  • 280030Z AUTO 33003KT 9999 // NCD 30/22 Q1011 RF00.0/000.0
  • 280000Z AUTO 32003KT 9999 // NCD 29/21 Q1012 RF00.0/000.0
  • 272330Z AUTO 07005KT 050V110 9999 // SCT022 29/22 Q1012
  • 272300Z AUTO 21005KT 180V260 9999 // OVC022 27/21 Q1012

TAF AMD TAF YSRI
Valid from the 28 at 00:00 until the 29 at 00:00 UTC


272321Z 2800/2900 07010KT 9999 SCT035
FM280800 17010KT 9999 -SHRA SCT010 BKN020
FM282000 19010KT 9999 -SHRA SCT012 BKN025
PROB30
TEMPO 2803/2810 4000 TSRA FEW010 SCT040CB



MET'MAP, your aeronautical weather chart ! - Copyright ORBIFLY December 2007 - Disclaimer

ORBIFLY MET'MAP TEAM :

Programming & Development : Alexandra Zaïnal
Concept & original design : Baudouin d'Aumeries
Assistance for programming : Marc-Olivier Méhu
Technical & hardware support : Manuel Goepfert

Contact : metmap@orbifly.com




SOURCES & CREDITS :

   NOAA       Earth
Advisory